CheckWX is a tool to help pilots better visualize weather data.  It is not intended as a substitute for an official pre-flight weather briefing.

12:24:03 UTC

SAZS TAF
San Carlos De Bariloche Airport
San Carlos de Bariloche, Argentina
TAF SAZS 271100Z 2712/2812 29010KT 9999 SCT015 SCT020 BKN050 TX05/2718Z TNM03/2811Z TEMPO 2713/2716 8000 RA SCT010 BKN015 BKN050 BECMG 2717/2719 5000 RASN BKN010 OVC040 TEMPO 2719/2724 2000 SN BKN007 BKN010 BECMG 2804/2806 9999 NSW BKN018

Jun-27@
12:00 UTC

Jun-27 @ 12:00 UTC

Jun-27@
17:00 UTC

Jun-27 @ 17:00 UTC

TAF SAZS 271100Z 2712/2812 29010KT 9999 SCT015 SCT020 BKN050 TX05/2718Z TNM03/2811Z
Wind
  • 290° at 10 KTS
Cloud Levels
  • Scattered at 1,500' AGL
  • Scattered at 2,000' AGL
  • Broken at 5,000' AGL

Jun-27@
13:00 UTC

Jun-27 @ 13:00 UTC

Jun-27@
16:00 UTC

Jun-27 @ 16:00 UTC

TEMPO 2713/2716 8000 RA SCT010 BKN015 BKN050

Temporary

Temporary Changes expected for less than half the time period

Conditions
Rain
Cloud Levels
  • Scattered at 1,000' AGL
  • Broken at 1,500' AGL
  • Broken at 5,000' AGL

Jun-27@
17:00 UTC

Jun-27 @ 17:00 UTC

Jun-28@
04:00 UTC

Jun-28 @ 04:00 UTC

BECMG 2717/2719 5000 RASN BKN010 OVC040

Becoming

Becoming Conditions expected by Thu, Jun 27, 2019 @ 19:00 UTC

Wind
  • 290° at 10 KTS
Conditions
Rain, Snow
Cloud Levels
  • Broken at 1,000' AGL
  • Overcast at 4,000' AGL

Jun-27@
19:00 UTC

Jun-27 @ 19:00 UTC

Jun-28@
00:00 UTC

Jun-28 @ 00:00 UTC

TEMPO 2719/2724 2000 SN BKN007 BKN010

Temporary

Temporary Changes expected for less than half the time period

Conditions
Snow
Cloud Levels
  • Broken at 700' AGL
  • Broken at 1,000' AGL

Jun-28@
04:00 UTC

Jun-28 @ 04:00 UTC

Jun-28@
12:00 UTC

Jun-28 @ 12:00 UTC

BECMG 2804/2806 9999 NSW BKN018

Becoming

Becoming Conditions expected by Fri, Jun 28, 2019 @ 06:00 UTC

Wind
  • 290° at 10 KTS
Conditions
No significant weather
Cloud Levels
  • Broken at 1,800' AGL